createdAt,value
2018-11-29T00:00:35.750Z,102381.69
2018-11-29T00:03:04.774Z,102371.81
2018-11-29T00:05:33.545Z,102370.47
2018-11-29T00:08:02.252Z,102358.02
2018-11-29T00:10:30.910Z,102358.86
2018-11-29T00:12:59.574Z,102354.83
2018-11-29T00:15:28.447Z,102346.40
2018-11-29T00:17:57.131Z,102348.11
2018-11-29T00:20:25.815Z,102335.25
2018-11-29T00:22:54.479Z,102337.37
2018-11-29T00:25:23.196Z,102337.88
2018-11-29T00:27:51.909Z,102329.81
2018-11-29T00:30:21.676Z,102326.62
2018-11-29T00:32:51.068Z,102324.45
2018-11-29T00:35:19.829Z,102323.58
2018-11-29T00:37:48.607Z,102319.08
2018-11-29T00:40:19.120Z,102317.23
2018-11-29T00:42:47.784Z,102302.96
2018-11-29T00:45:18.549Z,102302.56
2018-11-29T00:47:47.854Z,102294.50
2018-11-29T00:50:17.252Z,102298.43
2018-11-29T00:52:46.833Z,102292.22
2018-11-29T00:55:16.633Z,102290.47
2018-11-29T00:57:45.308Z,102284.16
2018-11-29T01:00:28.739Z,102273.89
2018-11-29T01:02:57.391Z,102271.67
2018-11-29T01:05:26.023Z,102273.95
2018-11-29T01:07:54.723Z,102269.09
2018-11-29T01:10:23.403Z,102265.90
2018-11-29T01:12:52.276Z,102262.28
2018-11-29T01:15:22.048Z,102261.88
2018-11-29T01:17:51.410Z,102258.72
2018-11-29T01:20:21.308Z,102249.31
2018-11-29T01:22:50.071Z,102247.50
2018-11-29T01:25:18.960Z,102241.73
2018-11-29T01:27:49.537Z,102233.67
2018-11-29T01:30:19.211Z,102234.08
2018-11-29T01:32:47.963Z,102232.27
2018-11-29T01:35:18.685Z,102226.02
2018-11-29T01:37:47.421Z,102219.78
2018-11-29T01:40:18.805Z,102218.44
2018-11-29T01:42:48.924Z,102220.65
2018-11-29T01:45:17.552Z,102215.75
2018-11-29T01:47:46.242Z,102204.14
2018-11-29T01:50:15.050Z,102205.48
2018-11-29T01:52:43.799Z,102191.58
2018-11-29T01:55:12.485Z,102190.23
2018-11-29T01:57:41.171Z,102186.68
2018-11-29T02:00:12.671Z,102184.00
2018-11-29T02:02:41.358Z,102177.78
2018-11-29T02:05:11.073Z,102173.25
2018-11-29T02:07:39.779Z,102167.88
2018-11-29T02:10:18.710Z,102163.48
2018-11-29T02:12:47.408Z,102161.74
2018-11-29T02:42:04.034Z,102128.21
2018-11-29T02:44:33.122Z,102124.66
2018-11-29T02:47:10.114Z,102124.95
2018-11-29T02:49:48.240Z,102117.30
2018-11-29T02:52:31.393Z,102114.52
2018-11-29T02:55:13.269Z,102114.91
2018-11-29T02:57:42.780Z,102101.96
2018-11-29T03:00:16.653Z,102091.15
2018-11-29T03:02:48.154Z,102098.23
2018-11-29T03:05:19.711Z,102099.09
2018-11-29T03:07:50.389Z,102089.23
2018-11-29T03:10:24.640Z,102085.20
2018-11-29T03:12:54.136Z,102077.04
2018-11-29T03:15:23.809Z,102060.06
2018-11-29T03:17:53.032Z,102056.43
2018-11-29T03:20:22.614Z,102055.09
2018-11-29T03:22:51.788Z,102056.83
2018-11-29T03:25:21.226Z,102045.22
2018-11-29T03:27:51.748Z,102044.75
2018-11-29T03:30:37.444Z,102040.22
2018-11-29T03:33:06.764Z,102035.35
2018-11-29T03:35:35.815Z,102042.91
2018-11-29T03:38:05.478Z,102036.19
2018-11-29T03:40:37.085Z,102024.10
2018-11-29T03:43:21.165Z,102025.84
2018-11-29T03:45:57.975Z,102017.90
2018-11-29T03:48:27.471Z,102015.21
2018-11-29T03:50:56.569Z,102010.67
2018-11-29T03:53:26.500Z,102011.19
2018-11-29T03:55:56.737Z,102002.16
2018-11-29T03:58:26.733Z,102003.49
2018-11-29T04:00:56.804Z,101994.56
2018-11-29T04:03:26.060Z,101987.86
2018-11-29T04:05:55.135Z,101995.91
2018-11-29T04:08:24.840Z,102002.16
2018-11-29T04:10:54.439Z,101995.07
2018-11-29T04:13:24.430Z,101999.94
2018-11-29T04:15:59.339Z,101979.91
2018-11-29T04:18:29.237Z,101985.28
2018-11-29T04:20:58.980Z,101970.41
2018-11-29T04:23:29.307Z,101973.20
2018-11-29T04:25:59.386Z,101966.95
2018-11-29T04:28:35.578Z,101973.20
2018-11-29T04:31:06.744Z,101968.30
2018-11-29T04:33:40.388Z,101976.36
2018-11-29T04:36:11.271Z,101972.33
2018-11-29T04:38:41.224Z,101956.98
2018-11-29T04:41:11.764Z,101973.77
2018-11-29T04:46:54.750Z,101968.41
2018-11-29T04:49:24.115Z,101961.41
2018-11-29T04:51:54.250Z,101956.91
2018-11-29T04:54:31.757Z,101958.32
2018-11-29T04:57:11.464Z,101943.55
2018-11-29T05:02:51.791Z,101940.51
2018-11-29T05:05:31.798Z,101919.50
2018-11-29T05:08:10.645Z,101922.19
2018-11-29T05:10:44.382Z,101923.13
2018-11-29T05:16:00.316Z,101919.11
2018-11-29T05:18:38.610Z,101899.95
2018-11-29T05:21:17.557Z,101906.66
2018-11-29T05:23:46.712Z,101901.66
2018-11-29T05:26:21.919Z,101897.27
2018-11-29T05:29:07.340Z,101889.21
2018-11-29T05:31:45.199Z,101886.53
2018-11-29T05:34:39.760Z,101891.03
2018-11-29T05:37:32.835Z,101876.81
2018-11-29T05:40:11.812Z,101885.73
2018-11-29T05:43:07.861Z,101875.58
2018-11-29T05:54:18.717Z,101886.90
2018-11-29T06:06:50.052Z,101879.14
2018-11-29T06:10:05.368Z,101875.59
2018-11-29T06:16:19.396Z,101869.82
2018-11-29T06:18:58.117Z,101874.24
2018-11-29T06:21:47.077Z,101876.06
2018-11-29T06:27:21.976Z,101870.98
2018-11-29T06:30:02.988Z,101863.40
2018-11-29T06:46:25.721Z,101835.46
2018-11-29T06:52:45.570Z,101852.62
2018-11-29T06:56:45.366Z,101840.83
2018-11-29T07:06:51.396Z,101833.02
2018-11-29T07:09:45.013Z,101816.33
2018-11-29T07:12:32.245Z,101822.97
2018-11-29T07:18:59.936Z,101820.45
2018-11-29T07:24:58.987Z,101807.79
2018-11-29T07:30:43.057Z,101794.30
2018-11-29T07:33:38.413Z,101787.00
2018-11-29T07:36:31.023Z,101792.84
2018-11-29T07:40:12.368Z,101776.15
2018-11-29T07:43:27.666Z,101785.07
2018-11-29T07:46:25.591Z,101779.63
2018-11-29T07:49:11.857Z,101789.89
2018-11-29T07:52:09.865Z,101775.02
2018-11-29T07:54:43.622Z,101785.27
2018-11-29T07:57:41.248Z,101772.22
2018-11-29T08:03:43.893Z,101773.48
2018-11-29T08:06:15.728Z,101764.55
2018-11-29T08:08:46.558Z,101761.87
2018-11-29T08:11:16.645Z,101762.27
2018-11-29T08:13:47.116Z,101756.78
2018-11-29T08:16:32.001Z,101754.09
2018-11-29T08:19:10.645Z,101746.52
2018-11-29T08:21:50.653Z,101754.09
2018-11-29T08:24:27.338Z,101747.86
2018-11-29T08:29:38.862Z,101740.28
2018-11-29T08:32:44.015Z,101724.17
2018-11-29T08:35:34.535Z,101734.55
2018-11-29T08:38:20.298Z,101730.12
2018-11-29T08:40:50.158Z,101734.63
2018-11-29T08:43:20.852Z,101742.69
2018-11-29T08:48:58.389Z,101737.31
2018-11-29T08:51:32.133Z,101726.58
2018-11-29T08:54:14.262Z,101747.69
2018-11-29T08:56:44.878Z,101728.90
2018-11-29T09:00:07.452Z,101719.50
2018-11-29T09:02:52.106Z,101726.30
2018-11-29T09:05:23.911Z,101744.25
2018-11-29T09:08:16.211Z,101734.94
2018-11-29T09:10:49.990Z,101732.73
2018-11-29T09:13:30.491Z,101724.20
2018-11-29T09:16:10.701Z,101721.98
2018-11-29T09:19:02.995Z,101727.36
2018-11-29T09:21:42.912Z,101725.54
2018-11-29T09:24:17.837Z,101717.96
2018-11-29T09:26:55.276Z,101716.26
2018-11-29T09:29:35.508Z,101716.14
2018-11-29T09:32:14.729Z,101722.97
2018-11-29T09:38:00.428Z,101713.58
2018-11-29T09:40:40.636Z,101715.47
2018-11-29T09:43:12.863Z,101717.68
2018-11-29T09:45:49.743Z,101721.23
2018-11-29T09:48:21.882Z,101719.50
2018-11-29T09:50:59.735Z,101716.81
2018-11-29T09:53:30.240Z,101690.48
2018-11-29T09:58:53.763Z,101682.78
2018-11-29T10:01:35.866Z,101675.72
2018-11-29T10:04:16.408Z,101668.61
2018-11-29T10:09:41.713Z,101673.98
2018-11-29T10:12:22.639Z,101663.72
2018-11-29T10:14:55.124Z,101648.09
2018-11-29T10:17:24.692Z,101657.99
2018-11-29T10:19:56.112Z,101655.31
2018-11-29T10:22:28.481Z,101649.94
2018-11-29T10:24:57.581Z,101639.20
2018-11-29T10:27:27.817Z,101632.97
2018-11-29T10:30:02.152Z,101643.23
2018-11-29T10:32:49.965Z,101646.39
2018-11-29T10:35:25.584Z,101636.60
2018-11-29T10:37:58.541Z,101608.42
2018-11-29T10:40:29.020Z,101634.39
2018-11-29T10:42:59.903Z,101645.12
2018-11-29T10:45:29.801Z,101636.60
2018-11-29T10:47:59.445Z,101631.70
2018-11-29T10:50:37.219Z,101647.34
2018-11-29T10:53:22.877Z,101653.69
2018-11-29T10:56:02.940Z,101648.80
2018-11-29T10:58:34.666Z,101643.03
2018-11-29T11:01:12.546Z,101627.41
2018-11-29T11:03:42.896Z,101631.07
2018-11-29T11:06:19.564Z,101637.30
2018-11-29T11:08:54.270Z,101644.02
2018-11-29T11:11:30.292Z,101643.14
2018-11-29T11:14:09.145Z,101635.96
2018-11-29T11:16:47.412Z,101640.94
2018-11-29T11:22:11.037Z,101628.00
2018-11-29T11:24:41.764Z,101623.10
2018-11-29T11:27:13.710Z,101623.10
2018-11-29T11:29:52.357Z,101626.30
2018-11-29T11:35:08.318Z,101629.81
2018-11-29T11:37:39.508Z,101620.05
2018-11-29T11:40:25.974Z,101614.22
2018-11-29T11:43:05.252Z,101630.80
2018-11-29T11:45:33.904Z,101641.05
2018-11-29T11:48:13.533Z,101636.52
2018-11-29T11:50:44.560Z,101628.47
2018-11-29T11:53:29.798Z,101626.77
2018-11-29T11:56:00.688Z,101634.81
2018-11-29T11:58:37.687Z,101624.08
2018-11-29T12:01:09.239Z,101614.22
2018-11-29T12:03:40.981Z,101624.08
2018-11-29T12:06:19.820Z,101623.61
2018-11-29T12:08:59.164Z,101616.03
2018-11-29T12:11:31.865Z,101609.32
2018-11-29T12:14:04.122Z,101605.66
2018-11-29T12:16:36.073Z,101600.41
2018-11-29T12:19:09.579Z,101597.72
2018-11-29T12:24:17.082Z,101586.13
2018-11-29T12:26:48.976Z,101599.53
2018-11-29T12:29:20.196Z,101600.41
2018-11-29T12:32:02.278Z,101595.09
2018-11-29T12:34:44.418Z,101585.69
2018-11-29T12:37:14.899Z,101581.67
2018-11-29T12:39:46.551Z,101578.15
2018-11-29T12:42:30.078Z,101575.94
2018-11-29T12:45:00.780Z,101568.84
2018-11-29T12:47:47.603Z,101548.24
2018-11-29T12:50:19.736Z,101530.80
2018-11-29T12:53:02.499Z,101515.17
2018-11-29T12:55:40.193Z,101492.01
2018-11-29T12:58:09.964Z,101477.33
2018-11-29T13:00:44.715Z,101484.91
2018-11-29T13:03:15.305Z,101501.48
2018-11-29T13:05:44.898Z,101503.42
2018-11-29T13:08:13.965Z,101515.37
2018-11-29T13:10:47.912Z,101531.48
2018-11-29T13:13:18.073Z,101528.43
2018-11-29T13:15:57.729Z,101521.72
2018-11-29T13:18:29.690Z,101521.72
2018-11-29T13:21:06.848Z,101505.23
2018-11-29T13:23:37.876Z,101505.70
2018-11-29T13:26:12.843Z,101512.41
2018-11-29T13:28:44.074Z,101508.03
2018-11-29T13:31:23.864Z,101493.75
2018-11-29T13:34:03.123Z,101482.16
2018-11-29T13:36:33.992Z,101465.19
2018-11-29T13:39:03.882Z,101461.28
2018-11-29T13:41:36.007Z,101456.30
2018-11-29T13:44:05.915Z,101451.41
2018-11-29T13:46:50.773Z,101453.71
2018-11-29T13:49:31.592Z,101438.95
2018-11-29T13:52:02.013Z,101442.50
2018-11-29T13:54:33.054Z,101454.69
2018-11-29T13:57:03.211Z,101440.41
2018-11-29T14:00:11.686Z,101442.23
2018-11-29T14:02:47.250Z,101435.13
2018-11-29T14:05:20.661Z,101427.56
2018-11-29T14:07:51.143Z,101411.11
2018-11-29T14:10:24.333Z,101417.81
2018-11-29T14:13:11.762Z,101418.67
2018-11-29T14:15:49.188Z,101422.70
2018-11-29T14:18:21.818Z,101412.06
2018-11-29T14:20:53.025Z,101401.80
2018-11-29T14:23:24.539Z,101414.73
2018-11-29T14:25:56.537Z,101412.06
2018-11-29T14:28:38.137Z,101415.61
2018-11-29T14:31:21.138Z,101391.46
2018-11-29T14:33:54.649Z,101384.28
2018-11-29T14:36:25.924Z,101387.83
2018-11-29T14:38:56.519Z,101408.78
2018-11-29T14:41:30.396Z,101374.77
2018-11-29T14:44:03.183Z,101380.52
2018-11-29T14:46:35.228Z,101372.09
2018-11-29T14:49:14.756Z,101372.48
2018-11-29T14:54:32.366Z,101375.42
2018-11-29T14:57:05.330Z,101382.61
2018-11-29T14:59:52.536Z,101373.61
2018-11-29T15:02:27.085Z,101369.59
2018-11-29T15:05:07.689Z,101369.59
2018-11-29T15:07:39.702Z,101365.09
2018-11-29T15:10:13.970Z,101360.20
2018-11-29T15:12:47.676Z,101352.03
2018-11-29T15:15:31.265Z,101346.66
2018-11-29T15:18:15.303Z,101356.44
2018-11-29T15:20:53.618Z,101352.30
2018-11-29T15:23:28.051Z,101341.95
2018-11-29T15:26:01.930Z,101353.64
2018-11-29T15:28:46.171Z,101359.39
2018-11-29T15:31:32.828Z,101341.83
2018-11-29T15:34:14.588Z,101334.26
2018-11-29T15:36:47.893Z,101330.62
2018-11-29T15:39:27.694Z,101320.28
2018-11-29T15:42:06.924Z,101339.06
2018-11-29T15:45:00.724Z,101314.91
2018-11-29T15:47:33.756Z,101323.31
2018-11-29T15:50:26.904Z,101312.58
2018-11-29T15:53:01.438Z,101321.98
2018-11-29T15:55:35.036Z,101301.85
2018-11-29T15:58:14.148Z,101321.89
2018-11-29T16:01:02.089Z,101342.84
2018-11-29T16:03:42.204Z,101357.55
2018-11-29T16:06:14.727Z,101341.45
2018-11-29T16:11:40.923Z,101323.88
2018-11-29T16:14:14.231Z,101334.14
2018-11-29T16:16:48.722Z,101324.27
2018-11-29T16:19:24.441Z,101325.61
2018-11-29T16:21:57.527Z,101324.15
2018-11-29T16:24:53.434Z,101313.06
2018-11-29T16:27:27.420Z,101312.46
2018-11-29T16:30:05.296Z,101307.09
2018-11-29T16:32:54.132Z,101297.22
2018-11-29T16:35:28.224Z,101306.62
2018-11-29T16:38:18.725Z,101303.33
2018-11-29T16:41:01.436Z,101287.23
2018-11-29T16:43:47.707Z,101289.91
2018-11-29T16:46:34.074Z,101284.94
2018-11-29T16:49:11.106Z,101293.34
2018-11-29T16:51:59.508Z,101292.47
2018-11-29T16:54:37.933Z,101284.33
2018-11-29T16:57:17.548Z,101278.84
2018-11-29T17:00:08.556Z,101285.07
2018-11-29T17:02:40.158Z,101277.41
2018-11-29T17:05:13.446Z,101279.97
2018-11-29T17:07:48.180Z,101290.61
2018-11-29T17:10:19.341Z,101285.60
2018-11-29T17:13:01.661Z,101286.34
2018-11-29T17:15:31.801Z,101283.56
2018-11-29T17:18:01.467Z,101284.43
2018-11-29T17:20:31.089Z,101276.12
2018-11-29T17:23:02.892Z,101272.97
2018-11-29T17:25:45.780Z,101285.43
2018-11-29T17:28:27.082Z,101283.97
2018-11-29T17:31:02.907Z,101287.03
2018-11-29T17:33:39.379Z,101268.25
2018-11-29T17:36:09.962Z,101250.67
2018-11-29T17:38:47.639Z,101240.70
2018-11-29T17:41:18.887Z,101242.39
2018-11-29T17:44:00.866Z,101241.53
2018-11-29T17:46:35.279Z,101228.02
2018-11-29T17:49:07.961Z,101219.48
2018-11-29T17:51:39.947Z,101222.91
2018-11-29T17:54:10.506Z,101229.49
2018-11-29T17:56:50.575Z,101222.91
2018-11-29T18:05:18.166Z,101229.49
2018-11-29T18:07:52.642Z,101224.02
2018-11-29T18:10:30.664Z,101219.01
2018-11-29T18:13:12.782Z,101214.02
2018-11-29T18:15:42.809Z,101214.38
2018-11-29T18:18:14.659Z,101208.52
2018-11-29T18:20:43.953Z,101214.28
2018-11-29T18:23:14.484Z,101213.67
2018-11-29T18:25:52.612Z,101215.97
2018-11-29T18:28:23.404Z,101215.41
2018-11-29T18:31:01.563Z,101214.92
2018-11-29T18:33:34.945Z,101204.05
2018-11-29T18:36:14.125Z,101200.89
2018-11-29T18:38:47.507Z,101199.06
2018-11-29T18:41:21.802Z,101196.73
2018-11-29T18:43:53.949Z,101196.25
2018-11-29T18:46:36.535Z,101208.72
2018-11-29T18:49:18.610Z,101200.66
2018-11-29T18:52:03.454Z,101208.34
2018-11-29T18:54:34.752Z,101184.64
2018-11-29T18:57:05.639Z,101193.56
2018-11-29T19:00:07.298Z,101185.89
2018-11-29T19:02:41.172Z,101166.58
2018-11-29T19:07:53.152Z,101172.81
2018-11-29T19:10:24.981Z,101162.55
2018-11-29T19:13:09.474Z,101163.32
2018-11-29T19:15:52.490Z,101155.74
2018-11-29T19:18:39.192Z,101147.20
2018-11-29T19:21:31.437Z,101146.70
2018-11-29T19:24:10.748Z,101139.98
2018-11-29T19:26:43.306Z,101135.95
2018-11-29T19:29:25.837Z,101139.50
2018-11-29T19:34:45.733Z,101132.30
2018-11-29T19:37:17.895Z,101129.14
2018-11-29T19:39:52.418Z,101124.98
2018-11-29T19:42:26.769Z,101134.86
2018-11-29T19:45:10.115Z,101120.95
2018-11-29T19:47:45.473Z,101128.44
2018-11-29T19:50:21.907Z,101094.48
2018-11-29T19:53:08.870Z,101105.61
2018-11-29T19:55:55.214Z,101111.94
2018-11-29T20:01:19.786Z,101099.37
2018-11-29T20:03:55.792Z,101097.64
2018-11-29T20:06:35.024Z,101095.20
2018-11-29T20:09:10.118Z,101095.69
2018-11-29T20:11:44.679Z,101082.16
2018-11-29T20:14:19.762Z,101081.17
2018-11-29T20:16:52.802Z,101079.48
2018-11-29T20:19:31.754Z,101080.34
2018-11-29T20:22:04.529Z,101065.92
2018-11-29T20:24:39.879Z,101062.75
2018-11-29T20:27:12.503Z,101053.73
2018-11-29T20:29:42.279Z,101059.93
2018-11-29T20:32:11.512Z,101046.02
2018-11-29T20:34:52.850Z,101048.22
2018-11-29T20:37:34.694Z,101037.48
2018-11-29T20:40:23.293Z,101045.06
2018-11-29T20:42:55.207Z,101037.48
2018-11-29T20:45:38.653Z,101046.87
2018-11-29T20:48:16.146Z,101026.36
2018-11-29T20:50:47.590Z,101028.08
2018-11-29T20:53:19.700Z,101033.45
2018-11-29T20:56:14.510Z,101021.84
2018-11-29T20:58:44.083Z,101027.22
2018-11-29T21:03:49.641Z,101015.61
2018-11-29T21:06:19.428Z,101041.98
2018-11-29T21:08:49.574Z,101019.16
2018-11-29T21:11:24.284Z,101012.92
2018-11-29T21:13:59.240Z,101013.54
2018-11-29T21:20:41.017Z,100994.02
2018-11-29T21:23:18.658Z,100982.28
2018-11-29T21:25:51.660Z,100989.37
2018-11-29T21:28:23.133Z,100986.94
2018-11-29T21:37:18.797Z,100978.75
2018-11-29T21:39:56.397Z,100981.43
2018-11-29T21:46:32.642Z,100975.02
2018-11-29T21:49:12.246Z,100977.09
2018-11-29T21:51:45.014Z,100968.04
2018-11-29T21:54:58.505Z,100973.66
2018-11-29T22:13:28.404Z,100948.64
2018-11-29T22:16:31.820Z,100946.69
2018-11-29T22:19:06.985Z,100941.17
2018-11-29T22:21:46.231Z,100941.55
2018-11-29T22:24:35.603Z,100945.34
2018-11-29T22:27:10.643Z,100930.44
2018-11-29T22:30:42.318Z,100936.66
2018-11-29T22:33:39.146Z,100933.36
2018-11-29T22:36:37.610Z,100930.67
2018-11-29T22:39:20.996Z,100929.33
2018-11-29T22:45:53.827Z,100912.97
2018-11-29T22:48:22.567Z,100901.36
2018-11-29T22:50:51.870Z,100912.00
2018-11-29T22:53:20.629Z,100916.38
2018-11-29T22:55:49.334Z,100921.27
2018-11-29T22:58:18.036Z,100916.75
2018-11-29T23:00:53.453Z,100915.75
2018-11-29T23:03:22.518Z,100918.34
2018-11-29T23:05:51.186Z,100921.88
2018-11-29T23:08:19.876Z,100929.33
2018-11-29T23:10:48.812Z,100923.57
2018-11-29T23:13:17.583Z,100911.86
2018-11-29T23:15:46.258Z,100924.30
2018-11-29T23:18:15.000Z,100922.47
2018-11-29T23:20:43.791Z,100933.45
2018-11-29T23:23:12.642Z,100933.84
2018-11-29T23:25:41.359Z,100927.98
2018-11-29T23:28:10.104Z,100937.73
2018-11-29T23:30:38.784Z,100926.98
2018-11-29T23:33:07.455Z,100923.70
2018-11-29T23:35:36.204Z,100923.19
2018-11-29T23:38:05.166Z,100916.47
2018-11-29T23:40:33.893Z,100906.58
2018-11-29T23:43:02.876Z,100922.22
2018-11-29T23:45:31.597Z,100914.53
2018-11-29T23:48:00.300Z,100903.78
2018-11-29T23:50:29.016Z,100909.64
2018-11-29T23:52:57.747Z,100910.98
2018-11-29T23:55:26.536Z,100912.19
2018-11-29T23:57:55.340Z,100904.13
